createdAt,value
2023-04-02T00:04:21.745Z,92.5
2023-04-02T00:09:27.521Z,91.5
2023-04-02T00:14:33.703Z,91.5
2023-04-02T00:19:39.828Z,92
2023-04-02T00:24:46.149Z,91.5
2023-04-02T00:29:52.109Z,91.5
2023-04-02T00:34:58.247Z,92
2023-04-02T00:40:04.629Z,90
2023-04-02T00:45:10.557Z,90.5
2023-04-02T00:50:16.651Z,90
2023-04-02T00:55:22.808Z,88
2023-04-02T01:00:29.063Z,87
2023-04-02T01:05:35.227Z,87
2023-04-02T01:10:41.209Z,87
2023-04-02T01:15:47.413Z,89.5
2023-04-02T01:20:53.531Z,85.5
2023-04-02T01:25:59.801Z,86
2023-04-02T01:31:05.819Z,88.5
2023-04-02T01:36:11.965Z,86
2023-04-02T01:41:18.119Z,86
2023-04-02T01:46:24.320Z,86.5
2023-04-02T01:51:30.391Z,86
2023-04-02T01:56:36.518Z,87.5
2023-04-02T02:01:42.688Z,87.5
2023-04-02T02:06:48.824Z,87.5
2023-04-02T02:11:54.924Z,86.5
2023-04-02T02:17:01.053Z,85.5
2023-04-02T02:22:07.573Z,86
2023-04-02T02:27:13.336Z,87
2023-04-02T02:32:19.506Z,87.5
2023-04-02T02:37:25.627Z,86
2023-04-02T02:42:31.789Z,87
2023-04-02T02:47:37.942Z,87
2023-04-02T02:52:44.056Z,87.5
2023-04-02T02:57:50.182Z,87.5
2023-04-02T03:02:56.394Z,88.5
2023-04-02T03:08:02.525Z,88
2023-04-02T03:13:08.608Z,87
2023-04-02T03:18:14.998Z,88
2023-04-02T03:23:20.834Z,89
2023-04-02T03:28:27.028Z,90
2023-04-02T03:33:33.159Z,90.5
2023-04-02T03:38:39.296Z,89.5
2023-04-02T03:43:45.445Z,88
2023-04-02T03:48:51.794Z,87.5
2023-04-02T03:53:57.725Z,88.5
2023-04-02T03:59:03.858Z,89.5
2023-04-02T04:04:09.992Z,89.5
2023-04-02T04:09:16.122Z,89
2023-04-02T04:14:22.294Z,89
2023-04-02T04:19:28.398Z,89
2023-04-02T04:24:34.567Z,89
2023-04-02T04:29:40.972Z,89.5
2023-04-02T04:34:47.063Z,90
2023-04-02T04:39:52.975Z,90
2023-04-02T04:44:59.123Z,90
2023-04-02T04:50:05.261Z,91
2023-04-02T04:55:11.381Z,90.5
2023-04-02T05:00:17.777Z,89
2023-04-02T05:05:23.650Z,88
2023-04-02T05:10:29.820Z,88.5
2023-04-02T05:15:36.256Z,88.5
2023-04-02T05:20:42.095Z,89
2023-04-02T05:25:48.227Z,88
2023-04-02T05:30:54.389Z,88.5
2023-04-02T05:36:00.519Z,88.5
2023-04-02T05:41:06.702Z,88
2023-04-02T05:46:12.966Z,89
2023-04-02T05:51:18.946Z,89
2023-04-02T05:56:25.040Z,88
2023-04-02T06:01:31.244Z,88.5
2023-04-02T06:06:37.378Z,84.5
2023-04-02T06:11:43.505Z,66.5
2023-04-02T06:16:49.686Z,50.5
2023-04-02T06:21:56.007Z,49
2023-04-02T06:27:01.940Z,48.5
2023-04-02T06:32:08.060Z,47.5
2023-04-02T06:37:14.402Z,45.5
2023-04-02T06:42:20.702Z,47.5
2023-04-02T06:47:27.224Z,48.5
2023-04-02T06:52:34.635Z,48
2023-04-02T06:57:38.755Z,48
2023-04-02T07:02:44.914Z,48.5
2023-04-02T07:07:51.077Z,47
2023-04-02T07:12:57.222Z,45
2023-04-02T07:18:03.364Z,43
2023-04-02T07:23:09.483Z,45.5
2023-04-02T07:28:15.775Z,49.5
2023-04-02T07:33:21.768Z,55
2023-04-02T07:38:27.935Z,49
2023-04-02T07:43:34.030Z,46
2023-04-02T07:48:40.194Z,46
2023-04-02T07:53:46.320Z,49
2023-04-02T07:58:52.474Z,51
2023-04-02T08:03:58.755Z,49.5
2023-04-02T08:09:04.754Z,48
2023-04-02T08:14:10.904Z,47.5
2023-04-02T08:19:17.045Z,55.5
2023-04-02T08:24:23.333Z,62.5
2023-04-02T08:29:29.344Z,69
2023-04-02T08:34:35.466Z,66
2023-04-02T08:39:41.591Z,73
2023-04-02T08:44:47.896Z,71
2023-04-02T08:49:53.880Z,73
2023-04-02T08:55:00.016Z,71
2023-04-02T09:00:06.301Z,76
2023-04-02T09:05:12.540Z,80
2023-04-02T09:10:18.425Z,80.5
2023-04-02T09:15:35.038Z,83
2023-04-02T09:20:40.994Z,83
2023-04-02T09:25:54.222Z,82.5
2023-04-02T09:30:53.483Z,82.5
2023-04-02T09:35:59.419Z,86
2023-04-02T09:41:05.607Z,86.5
2023-04-02T09:46:11.757Z,83
2023-04-02T09:51:17.873Z,80.5
2023-04-02T09:56:23.985Z,81
2023-04-02T10:01:30.131Z,80
2023-04-02T10:06:36.497Z,79.5
2023-04-02T10:16:48.641Z,76.5
2023-04-02T10:21:54.633Z,72.5
2023-04-02T10:27:00.808Z,79
2023-04-02T10:32:07.232Z,73
2023-04-02T10:37:13.096Z,73.5
2023-04-02T10:42:19.255Z,73
2023-04-02T10:47:25.380Z,70
2023-04-02T10:52:31.521Z,71
2023-04-02T10:57:37.739Z,70.5
2023-04-02T11:02:43.916Z,70
2023-04-02T11:07:49.937Z,66.5
2023-04-02T11:12:56.230Z,71
2023-04-02T11:18:02.257Z,70
2023-04-02T11:23:08.392Z,69
2023-04-02T11:28:14.594Z,66.5
2023-04-02T11:33:23.642Z,65.5
2023-04-02T11:38:26.903Z,70
2023-04-02T11:43:33.065Z,68.5
2023-04-02T11:48:39.095Z,68.5
2023-04-02T11:53:45.245Z,70
2023-04-02T11:58:51.602Z,66.5
2023-04-02T12:03:57.625Z,69
2023-04-02T12:09:03.595Z,73.5
2023-04-02T12:14:09.786Z,71.5
2023-04-02T12:19:15.865Z,71.5
2023-04-02T12:24:22.043Z,72
2023-04-02T12:29:28.172Z,72
2023-04-02T12:34:34.336Z,73
2023-04-02T12:39:40.448Z,71
2023-04-02T12:44:46.624Z,73
2023-04-02T12:49:52.745Z,72
2023-04-02T12:54:59.092Z,75.5
2023-04-02T13:00:05.282Z,73.5
2023-04-02T13:05:11.161Z,70.5
2023-04-02T13:10:17.339Z,70.5
2023-04-02T13:15:23.501Z,70.5
2023-04-02T13:20:29.596Z,71
2023-04-02T13:25:35.834Z,68.5
2023-04-02T13:30:41.909Z,70.5
2023-04-02T13:35:48.063Z,71
2023-04-02T13:40:54.139Z,67
2023-04-02T13:46:00.359Z,68.5
2023-04-02T13:51:06.432Z,70
2023-04-02T13:56:12.782Z,69.5
2023-04-02T14:01:18.857Z,69
2023-04-02T14:06:24.878Z,71.5
2023-04-02T14:11:30.996Z,73
2023-04-02T14:16:37.182Z,72
2023-04-02T14:21:43.232Z,68.5
2023-04-02T14:26:49.427Z,70
2023-04-02T14:31:55.542Z,70
2023-04-02T14:37:01.660Z,73
2023-04-02T14:42:07.841Z,71
2023-04-02T14:47:13.989Z,75.5
2023-04-02T14:52:20.186Z,73
2023-04-02T14:57:26.277Z,71
2023-04-02T15:02:32.414Z,71.5
2023-04-02T15:07:38.544Z,74.5
2023-04-02T15:12:44.702Z,74
2023-04-02T15:17:51.271Z,74.5
2023-04-02T15:22:56.977Z,75.5
2023-04-02T15:28:03.232Z,72.5
2023-04-02T15:33:09.258Z,74.5
2023-04-02T15:38:15.396Z,74
2023-04-02T15:43:21.549Z,77
2023-04-02T15:48:27.660Z,75.5
2023-04-02T15:53:33.781Z,75.5
2023-04-02T15:58:39.937Z,78
2023-04-02T16:08:52.238Z,77
2023-04-02T16:13:58.383Z,75.5
2023-04-02T16:19:04.537Z,77
2023-04-02T16:24:10.654Z,77.5
2023-04-02T16:29:16.767Z,75
2023-04-02T16:34:22.945Z,76
2023-04-02T16:39:29.101Z,77.5
2023-04-02T16:44:36.248Z,77
2023-04-02T16:49:41.367Z,76
2023-04-02T16:54:47.483Z,77.5
2023-04-02T16:59:53.621Z,79.5
2023-04-02T17:04:59.755Z,82.5
2023-04-02T17:10:06.602Z,80.5
2023-04-02T17:20:18.180Z,84.5
2023-04-02T17:25:24.338Z,85
2023-04-02T17:30:30.445Z,87
2023-04-02T17:35:36.634Z,85
2023-04-02T17:40:42.777Z,86
2023-04-02T17:45:48.934Z,88
2023-04-02T17:50:55.084Z,88.5
2023-04-02T17:56:01.184Z,88.5
2023-04-02T18:01:07.365Z,89
2023-04-02T18:06:13.430Z,90
2023-04-02T18:11:19.645Z,90
2023-04-02T18:16:25.765Z,89.5
2023-04-02T18:21:31.880Z,88.5
2023-04-02T18:26:38.026Z,89
2023-04-02T18:31:44.273Z,90
2023-04-02T18:36:50.304Z,91
2023-04-02T18:41:56.444Z,91
2023-04-02T18:47:02.574Z,91
2023-04-02T18:52:08.676Z,90
2023-04-02T18:57:14.904Z,90.5
2023-04-02T19:02:21.011Z,90
2023-04-02T19:07:27.140Z,90
2023-04-02T19:12:33.288Z,91.5
2023-04-02T19:17:39.465Z,92
2023-04-02T19:22:45.607Z,91.5
2023-04-02T19:27:51.805Z,92
2023-04-02T19:32:58.076Z,92.5
2023-04-02T19:38:04.088Z,92
2023-04-02T19:43:10.145Z,92.5
2023-04-02T19:48:16.411Z,92
2023-04-02T19:53:22.443Z,92
2023-04-02T19:58:28.534Z,91.5
2023-04-02T20:03:34.687Z,92
2023-04-02T20:08:40.818Z,92
2023-04-02T20:13:46.983Z,92.5
2023-04-02T20:18:53.280Z,92.5
2023-04-02T20:23:59.224Z,92.5
2023-04-02T20:29:05.572Z,92.5
2023-04-02T20:34:11.614Z,93
2023-04-02T20:39:17.710Z,93
2023-04-02T20:44:23.808Z,92
2023-04-02T20:49:29.914Z,92
2023-04-02T20:54:36.060Z,91.5
2023-04-02T20:59:42.243Z,91.5
2023-04-02T21:04:48.394Z,91
2023-04-02T21:09:54.480Z,92
2023-04-02T21:15:02.634Z,92
2023-04-02T21:20:06.799Z,92
2023-04-02T21:25:12.907Z,92.5
2023-04-02T21:30:19.042Z,92.5
2023-04-02T21:35:25.220Z,92.5
2023-04-02T21:40:31.345Z,93
2023-04-02T21:45:37.638Z,92
2023-04-02T21:50:43.758Z,92
2023-04-02T21:55:49.741Z,91.5
2023-04-02T22:00:55.898Z,92
2023-04-02T22:06:02.305Z,92
2023-04-02T22:11:08.190Z,91.5
2023-04-02T22:16:14.345Z,91.5
2023-04-02T22:21:20.589Z,92.5
2023-04-02T22:26:26.635Z,92.5
2023-04-02T22:31:32.810Z,92
2023-04-02T22:36:38.880Z,91.5
2023-04-02T22:41:45.110Z,92
2023-04-02T22:46:51.155Z,92
2023-04-02T22:51:57.302Z,92.5
2023-04-02T22:57:03.433Z,92
2023-04-02T23:02:09.838Z,92
2023-04-02T23:07:15.701Z,92
2023-04-02T23:12:21.862Z,91.5
2023-04-02T23:17:28.169Z,92.5
2023-04-02T23:22:34.261Z,92.5
2023-04-02T23:27:40.278Z,92.5
2023-04-02T23:32:46.508Z,91.5
2023-04-02T23:37:52.544Z,92.5
2023-04-02T23:42:58.981Z,93
2023-04-02T23:48:05.010Z,93.5
2023-04-02T23:53:11.022Z,94.5
2023-04-02T23:58:17.193Z,94.5
